Data Viewer
| City | State | Eastern Time | Source | Temp | DewPt | RH | BP | 5 Min Precip | Wind Speed | Wind Dir | 5 Min Wind Max | 5 Min Wind Max Dir |
|---|---|---|---|---|---|---|---|---|---|---|---|---|
| Sea Girt | NJ | 2026-05-03 19:30 | Mesonet | 59 | 30 | 33 | 29.90 | 0.00 | 5 | W | 10 | WSW |
| Sea Girt | NJ | 2026-05-04 11:20 | Mesonet | 67 | 43 | 43 | 29.95 | 0.00 | 9 | WSW | 14 | WSW |
| Sea Girt | NJ | 2026-05-04 11:50 | Mesonet | 68 | 41 | 38 | 29.94 | 0.00 | 17 | W | 21 | WSW |
| Sea Girt | NJ | 2026-05-04 11:45 | Mesonet | 68 | 38 | 33 | 29.95 | 0.00 | 10 | W | 22 | WSW |
| Sea Girt | NJ | 2026-05-04 11:40 | Mesonet | 68 | 39 | 35 | 29.94 | 0.00 | 21 | WSW | 25 | WSW |
| Sea Girt | NJ | 2026-05-04 11:35 | Mesonet | 68 | 44 | 41 | 29.94 | 0.00 | 12 | SW | 17 | S |
| Sea Girt | NJ | 2026-05-04 11:30 | Mesonet | 67 | 42 | 39 | 29.95 | 0.00 | 7 | SW | 15 | WSW |
| Sea Girt | NJ | 2026-05-04 11:25 | Mesonet | 67 | 45 | 44 | 29.95 | 0.00 | 7 | SSW | 12 | SW |
| Sea Girt | NJ | 2026-05-04 11:15 | Mesonet | 66 | 42 | 41 | 29.95 | 0.00 | 10 | SW | 16 | SSW |
| Sea Girt | NJ | 2026-05-04 12:00 | Mesonet | 69 | 41 | 37 | 29.94 | 0.00 | 7 | WSW | 15 | WSW |
| Sea Girt | NJ | 2026-05-04 11:10 | Mesonet | 66 | 42 | 41 | 29.95 | 0.00 | 11 | WSW | 18 | SSW |
| Sea Girt | NJ | 2026-05-04 11:05 | Mesonet | 66 | 41 | 41 | 29.96 | 0.00 | 15 | S | 19 | SSW |
| Sea Girt | NJ | 2026-05-04 11:00 | Mesonet | 66 | 42 | 41 | 29.95 | 0.00 | 13 | SW | 20 | SW |
| Sea Girt | NJ | 2026-05-04 10:55 | Mesonet | 66 | 41 | 40 | 29.96 | 0.00 | 11 | SW | 19 | SSW |
| Sea Girt | NJ | 2026-05-04 10:50 | Mesonet | 66 | 42 | 41 | 29.96 | 0.00 | 10 | SSW | 18 | SW |
| Sea Girt | NJ | 2026-05-04 10:45 | Mesonet | 66 | 40 | 40 | 29.96 | 0.00 | 14 | SW | 22 | SSW |
| Sea Girt | NJ | 2026-05-04 11:55 | Mesonet | 68 | 42 | 39 | 29.95 | 0.00 | 11 | WSW | 21 | WSW |
| Sea Girt | NJ | 2026-05-04 12:05 | Mesonet | 68 | 41 | 37 | 29.94 | 0.00 | 17 | SW | 20 | SSW |
| Sea Girt | NJ | 2026-05-04 10:35 | Mesonet | 66 | 41 | 40 | 29.96 | 0.00 | 7 | SW | 19 | SSW |
| Sea Girt | NJ | 2026-05-04 12:50 | Mesonet | 70 | 41 | 35 | 29.92 | 0.00 | 8 | WSW | 19 | W |
| Sea Girt | NJ | 2026-05-04 13:20 | Mesonet | 63 | 52 | 67 | 29.91 | 0.00 | 20 | SSE | 22 | SSE |
| Sea Girt | NJ | 2026-05-04 13:15 | Mesonet | 62 | 51 | 69 | 29.91 | 0.00 | 12 | S | 21 | S |
| Sea Girt | NJ | 2026-05-04 13:10 | Mesonet | 62 | 51 | 67 | 29.92 | 0.00 | 10 | SE | 19 | S |
| Sea Girt | NJ | 2026-05-04 13:05 | Mesonet | 65 | 51 | 61 | 29.92 | 0.00 | 13 | S | 20 | SSE |
| Sea Girt | NJ | 2026-05-04 13:00 | Mesonet | 70 | 42 | 36 | 29.92 | 0.00 | 9 | SSW | 27 | SSW |
| Sea Girt | NJ | 2026-05-04 12:55 | Mesonet | 71 | 40 | 33 | 29.92 | 0.00 | 12 | WSW | 17 | WSW |
| Sea Girt | NJ | 2026-05-04 12:45 | Mesonet | 70 | 40 | 35 | 29.93 | 0.00 | 16 | WSW | 21 | WSW |
| Sea Girt | NJ | 2026-05-04 12:10 | Mesonet | 69 | 42 | 38 | 29.94 | 0.00 | 12 | W | 23 | SW |
| Sea Girt | NJ | 2026-05-04 12:40 | Mesonet | 70 | 42 | 36 | 29.93 | 0.00 | 13 | W | 21 | WNW |
| Sea Girt | NJ | 2026-05-04 12:35 | Mesonet | 70 | 41 | 35 | 29.93 | 0.00 | 12 | WSW | 21 | SW |
| Sea Girt | NJ | 2026-05-04 12:30 | Mesonet | 70 | 41 | 35 | 29.93 | 0.00 | 13 | WSW | 15 | SW |
| Sea Girt | NJ | 2026-05-04 12:25 | Mesonet | 69 | 40 | 35 | 29.93 | 0.00 | 12 | SW | 21 | WSW |
| Sea Girt | NJ | 2026-05-04 12:20 | Mesonet | 69 | 40 | 35 | 29.93 | 0.00 | 19 | WSW | 22 | WSW |
| Sea Girt | NJ | 2026-05-04 12:15 | Mesonet | 68 | 41 | 37 | 29.94 | 0.00 | 8 | SW | 24 | SSW |
| Sea Girt | NJ | 2026-05-04 10:40 | Mesonet | 66 | 40 | 39 | 29.96 | 0.00 | 9 | SSW | 19 | SSW |
| Sea Girt | NJ | 2026-05-04 10:30 | Mesonet | 66 | 41 | 40 | 29.95 | 0.00 | 18 | S | 21 | SW |
| Sea Girt | NJ | 2026-05-04 13:30 | Mesonet | 65 | 51 | 61 | 29.90 | 0.00 | 18 | S | 21 | S |
| Sea Girt | NJ | 2026-05-04 08:20 | Mesonet | 57 | 44 | 62 | 29.99 | 0.00 | 11 | SW | 19 | SW |
| Sea Girt | NJ | 2026-05-04 08:50 | Mesonet | 60 | 43 | 54 | 29.99 | 0.00 | 11 | WSW | 21 | SW |
| Sea Girt | NJ | 2026-05-04 08:45 | Mesonet | 59 | 43 | 56 | 29.99 | 0.00 | 13 | WSW | 15 | WSW |
| Sea Girt | NJ | 2026-05-04 08:40 | Mesonet | 59 | 44 | 57 | 29.99 | 0.00 | 10 | SW | 17 | SW |
| Sea Girt | NJ | 2026-05-04 08:35 | Mesonet | 58 | 44 | 58 | 29.99 | 0.00 | 12 | SW | 17 | SW |
| Sea Girt | NJ | 2026-05-04 08:30 | Mesonet | 58 | 44 | 59 | 29.99 | 0.00 | 12 | SW | 19 | WSW |
| Sea Girt | NJ | 2026-05-04 08:25 | Mesonet | 57 | 44 | 61 | 29.99 | 0.00 | 16 | SW | 19 | SW |
| Sea Girt | NJ | 2026-05-04 08:15 | Mesonet | 56 | 43 | 62 | 29.99 | 0.00 | 18 | SW | 20 | SW |
| Sea Girt | NJ | 2026-05-04 09:00 | Mesonet | 60 | 41 | 49 | 29.98 | 0.00 | 15 | W | 23 | WSW |
| Sea Girt | NJ | 2026-05-04 08:10 | Mesonet | 56 | 43 | 63 | 29.99 | 0.00 | 10 | SW | 18 | SW |
| Sea Girt | NJ | 2026-05-04 08:05 | Mesonet | 56 | 44 | 65 | 29.99 | 0.00 | 8 | SW | 19 | WSW |
| Sea Girt | NJ | 2026-05-04 08:00 | Mesonet | 55 | 44 | 67 | 29.99 | 0.00 | 12 | SW | 19 | SW |
| Sea Girt | NJ | 2026-05-04 07:55 | Mesonet | 55 | 44 | 68 | 29.99 | 0.00 | 10 | SSW | 19 | WSW |
| Sea Girt | NJ | 2026-05-04 07:50 | Mesonet | 54 | 44 | 69 | 30.00 | 0.00 | 14 | WSW | 18 | SW |
| Sea Girt | NJ | 2026-05-04 07:45 | Mesonet | 54 | 44 | 69 | 29.99 | 0.00 | 18 | SW | 20 | SW |
| Sea Girt | NJ | 2026-05-04 08:55 | Mesonet | 60 | 42 | 52 | 29.99 | 0.00 | 9 | SW | 20 | SW |
| Sea Girt | NJ | 2026-05-04 09:05 | Mesonet | 61 | 42 | 49 | 29.98 | 0.00 | 11 | SW | 21 | SW |
| Sea Girt | NJ | 2026-05-04 10:25 | Mesonet | 65 | 40 | 40 | 29.96 | 0.00 | 13 | WSW | 23 | SW |
| Sea Girt | NJ | 2026-05-04 09:50 | Mesonet | 64 | 40 | 41 | 29.96 | 0.00 | 17 | SW | 20 | SW |
| Sea Girt | NJ | 2026-05-04 10:20 | Mesonet | 65 | 39 | 39 | 29.96 | 0.00 | 19 | SW | 25 | SW |
| Sea Girt | NJ | 2026-05-04 10:15 | Mesonet | 65 | 40 | 39 | 29.96 | 0.00 | 17 | SW | 22 | SW |
| Sea Girt | NJ | 2026-05-04 10:10 | Mesonet | 64 | 39 | 39 | 29.96 | 0.00 | 16 | SSW | 24 | SW |
| Sea Girt | NJ | 2026-05-04 10:05 | Mesonet | 64 | 40 | 41 | 29.96 | 0.00 | 13 | SSW | 19 | SW |
| Sea Girt | NJ | 2026-05-04 10:00 | Mesonet | 64 | 40 | 41 | 29.96 | 0.00 | 11 | WSW | 22 | WSW |
| Sea Girt | NJ | 2026-05-04 09:55 | Mesonet | 64 | 41 | 42 | 29.96 | 0.00 | 14 | SSW | 20 | WSW |
| Sea Girt | NJ | 2026-05-04 09:45 | Mesonet | 64 | 41 | 43 | 29.97 | 0.00 | 12 | WSW | 20 | WSW |
| Sea Girt | NJ | 2026-05-04 09:10 | Mesonet | 62 | 41 | 47 | 29.98 | 0.00 | 16 | WSW | 22 | SW |
| Sea Girt | NJ | 2026-05-04 09:40 | Mesonet | 63 | 40 | 43 | 29.97 | 0.00 | 10 | WSW | 23 | SW |
| Sea Girt | NJ | 2026-05-04 09:35 | Mesonet | 63 | 40 | 43 | 29.97 | 0.00 | 18 | SW | 21 | WSW |
| Sea Girt | NJ | 2026-05-04 09:30 | Mesonet | 63 | 40 | 44 | 29.98 | 0.00 | 18 | SW | 23 | WSW |
| Sea Girt | NJ | 2026-05-04 09:25 | Mesonet | 62 | 40 | 45 | 29.98 | 0.00 | 20 | SW | 20 | SW |
| Sea Girt | NJ | 2026-05-04 09:20 | Mesonet | 62 | 40 | 44 | 29.98 | 0.00 | 16 | WSW | 19 | SW |
| Sea Girt | NJ | 2026-05-04 09:15 | Mesonet | 62 | 40 | 45 | 29.98 | 0.00 | 15 | SW | 24 | SW |
| Sea Girt | NJ | 2026-05-04 13:25 | Mesonet | 62 | 53 | 72 | 29.91 | 0.00 | 11 | SW | 23 | SSE |
| Sea Girt | NJ | 2026-05-04 13:35 | Mesonet | 62 | 52 | 71 | 29.90 | 18 | SSE | |||
| Sea Girt | NJ | 2026-05-04 07:35 | Mesonet | 53 | 43 | 69 | 30.00 | 0.00 | 20 | SW | 20 | SW |
| Sea Girt | NJ | 2026-05-04 17:25 | Mesonet | 58 | 52 | 81 | 29.86 | 0.00 | 15 | SSE | 22 | SSE |
| Sea Girt | NJ | 2026-05-04 17:55 | Mesonet | 60 | 52 | 75 | 29.86 | 0.00 | 14 | SSW | 21 | S |
| Sea Girt | NJ | 2026-05-04 17:50 | Mesonet | 59 | 52 | 76 | 29.86 | 0.00 | 16 | S | 19 | S |
| Sea Girt | NJ | 2026-05-04 17:45 | Mesonet | 61 | 52 | 72 | 29.86 | 0.00 | 16 | SSE | 21 | S |
| Sea Girt | NJ | 2026-05-04 17:40 | Mesonet | 62 | 51 | 68 | 29.86 | 0.00 | 13 | S | 23 | S |
| Sea Girt | NJ | 2026-05-04 17:35 | Mesonet | 62 | 51 | 68 | 29.86 | 0.00 | 12 | S | 24 | S |
| Sea Girt | NJ | 2026-05-04 17:30 | Mesonet | 60 | 52 | 73 | 29.86 | 0.00 | 17 | SSE | 21 | S |
| Sea Girt | NJ | 2026-05-04 17:20 | Mesonet | 58 | 52 | 83 | 29.86 | 0.00 | 16 | SSE | 21 | SSE |
| Sea Girt | NJ | 2026-05-04 18:05 | Mesonet | 60 | 52 | 73 | 29.86 | 0.00 | 13 | S | 19 | S |
| Sea Girt | NJ | 2026-05-04 17:15 | Mesonet | 58 | 52 | 82 | 29.86 | 0.00 | 13 | SSE | 21 | S |
| Sea Girt | NJ | 2026-05-04 17:10 | Mesonet | 58 | 53 | 82 | 29.85 | 0.00 | 16 | S | 24 | S |
| Sea Girt | NJ | 2026-05-04 17:05 | Mesonet | 58 | 53 | 83 | 29.86 | 0.00 | 20 | S | 26 | S |
| Sea Girt | NJ | 2026-05-04 17:00 | Mesonet | 58 | 52 | 82 | 29.86 | 0.00 | 21 | S | 24 | S |
| Sea Girt | NJ | 2026-05-04 16:55 | Mesonet | 58 | 52 | 80 | 29.86 | 0.00 | 16 | S | 25 | S |
| Sea Girt | NJ | 2026-05-04 16:50 | Mesonet | 59 | 52 | 79 | 29.86 | 0.00 | 14 | S | 23 | SSE |
| Sea Girt | NJ | 2026-05-04 18:00 | Mesonet | 60 | 52 | 74 | 29.86 | 0.00 | 12 | S | 19 | S |
| Sea Girt | NJ | 2026-05-04 18:10 | Mesonet | 60 | 52 | 76 | 29.86 | 0.00 | 15 | S | 19 | S |
| Sea Girt | NJ | 2026-05-04 16:40 | Mesonet | 59 | 52 | 80 | 29.85 | 0.00 | 21 | S | 25 | S |
| Sea Girt | NJ | 2026-05-04 18:55 | Mesonet | 65 | 50 | 60 | 29.86 | 0.00 | 14 | SW | 19 | SSW |
| Sea Girt | NJ | 2026-05-04 19:25 | Mesonet | 63 | 52 | 68 | 29.86 | 0.00 | 5 | SSW | 16 | SSW |
| Sea Girt | NJ | 2026-05-04 19:20 | Mesonet | 63 | 52 | 67 | 29.86 | 0.00 | 6 | SSW | 15 | SSW |
| Sea Girt | NJ | 2026-05-04 19:15 | Mesonet | 63 | 52 | 66 | 29.86 | 0.00 | 12 | SSW | 14 | S |
| Sea Girt | NJ | 2026-05-04 19:10 | Mesonet | 63 | 52 | 67 | 29.86 | 0.00 | 13 | SSW | 16 | SSW |
| Sea Girt | NJ | 2026-05-04 19:05 | Mesonet | 64 | 52 | 65 | 29.86 | 0.00 | 12 | SSW | 14 | SSW |
| Sea Girt | NJ | 2026-05-04 19:00 | Mesonet | 64 | 51 | 63 | 29.86 | 0.00 | 12 | SSW | 20 | S |
| Sea Girt | NJ | 2026-05-04 18:50 | Mesonet | 65 | 50 | 58 | 29.85 | 0.00 | 10 | S | 18 | S |
| Sea Girt | NJ | 2026-05-04 18:15 | Mesonet | 59 | 52 | 79 | 29.86 | 0.00 | 15 | SSE | 20 | S |
| Sea Girt | NJ | 2026-05-04 18:45 | Mesonet | 65 | 50 | 60 | 29.86 | 0.00 | 14 | SSW | 18 | SSW |
| Sea Girt | NJ | 2026-05-04 18:40 | Mesonet | 65 | 50 | 60 | 29.86 | 0.00 | 15 | SSW | 19 | S |
| Sea Girt | NJ | 2026-05-04 18:35 | Mesonet | 64 | 51 | 63 | 29.85 | 0.00 | 6 | S | 22 | S |
| Sea Girt | NJ | 2026-05-04 18:30 | Mesonet | 64 | 52 | 64 | 29.85 | 0.00 | 11 | S | 22 | S |
| Sea Girt | NJ | 2026-05-04 18:25 | Mesonet | 61 | 53 | 74 | 29.85 | 0.00 | 14 | SSW | 18 | S |
| Sea Girt | NJ | 2026-05-04 18:20 | Mesonet | 59 | 52 | 77 | 29.85 | 0.00 | 14 | SSE | 19 | S |
| Sea Girt | NJ | 2026-05-04 16:45 | Mesonet | 58 | 52 | 79 | 29.86 | 0.00 | 17 | S | 23 | SSE |
| Sea Girt | NJ | 2026-05-04 16:35 | Mesonet | 59 | 52 | 77 | 29.86 | 0.00 | 18 | SSE | 26 | S |
| Sea Girt | NJ | 2026-05-04 13:40 | Mesonet | 62 | 52 | 69 | 29.91 | 0.00 | 13 | SSE | 26 | SSE |
| Sea Girt | NJ | 2026-05-04 14:20 | Mesonet | 60 | 52 | 76 | 29.90 | 0.00 | 21 | S | 26 | S |
| Sea Girt | NJ | 2026-05-04 14:50 | Mesonet | 60 | 52 | 76 | 29.89 | 0.00 | 17 | SSE | 23 | S |
| Sea Girt | NJ | 2026-05-04 14:45 | Mesonet | 61 | 52 | 72 | 29.88 | 0.00 | 13 | S | 22 | SSE |
| Sea Girt | NJ | 2026-05-04 14:40 | Mesonet | 61 | 52 | 72 | 29.89 | 0.00 | 14 | SSE | 28 | S |
| Sea Girt | NJ | 2026-05-04 14:35 | Mesonet | 60 | 53 | 76 | 29.88 | 0.00 | 17 | SSE | 23 | SSE |
| Sea Girt | NJ | 2026-05-04 14:30 | Mesonet | 59 | 52 | 77 | 29.89 | 0.00 | 17 | SSE | 28 | SSE |
| Sea Girt | NJ | 2026-05-04 14:25 | Mesonet | 61 | 52 | 75 | 29.89 | 0.00 | 21 | SSE | 23 | SSE |
| Sea Girt | NJ | 2026-05-04 14:15 | Mesonet | 60 | 52 | 75 | 29.89 | 0.00 | 17 | S | 24 | S |
| Sea Girt | NJ | 2026-05-04 15:00 | Mesonet | 60 | 52 | 75 | 29.88 | 0.00 | 13 | S | 25 | S |
| Sea Girt | NJ | 2026-05-04 14:10 | Mesonet | 61 | 52 | 74 | 29.89 | 0.00 | 19 | SSE | 24 | S |
| Sea Girt | NJ | 2026-05-04 14:05 | Mesonet | 61 | 52 | 74 | 29.89 | 0.00 | 17 | SSE | 26 | S |
| Sea Girt | NJ | 2026-05-04 14:00 | Mesonet | 60 | 52 | 76 | 29.90 | 0.00 | 17 | S | 26 | S |
| Sea Girt | NJ | 2026-05-04 13:55 | Mesonet | 60 | 52 | 76 | 29.90 | 0.00 | 10 | S | 25 | SSE |
| Sea Girt | NJ | 2026-05-04 13:50 | Mesonet | 60 | 52 | 74 | 29.90 | 0.00 | 22 | SSE | 27 | SSE |
| Sea Girt | NJ | 2026-05-04 13:45 | Mesonet | 61 | 52 | 71 | 29.91 | 0.00 | 14 | SSE | 24 | SSE |
| Sea Girt | NJ | 2026-05-04 14:55 | Mesonet | 60 | 52 | 74 | 29.88 | 0.00 | 20 | SSE | 25 | SSE |
| Sea Girt | NJ | 2026-05-04 15:05 | Mesonet | 60 | 52 | 74 | 29.88 | 0.00 | 14 | S | 23 | SSW |
| Sea Girt | NJ | 2026-05-04 16:30 | Mesonet | 59 | 52 | 79 | 29.85 | 0.00 | 16 | S | 27 | S |
| Sea Girt | NJ | 2026-05-04 15:55 | Mesonet | 59 | 51 | 76 | 29.85 | 0.00 | 22 | S | 27 | S |
| Sea Girt | NJ | 2026-05-04 16:25 | Mesonet | 59 | 52 | 77 | 29.86 | 0.00 | 16 | S | 24 | S |
| Sea Girt | NJ | 2026-05-04 16:20 | Mesonet | 59 | 53 | 79 | 29.85 | 0.00 | 13 | SSE | 25 | SSE |
| Sea Girt | NJ | 2026-05-04 16:15 | Mesonet | 58 | 52 | 79 | 29.86 | 0.00 | 18 | S | 24 | S |
| Sea Girt | NJ | 2026-05-04 16:10 | Mesonet | 59 | 52 | 78 | 29.86 | 0.00 | 18 | S | 30 | S |
| Sea Girt | NJ | 2026-05-04 16:05 | Mesonet | 58 | 51 | 78 | 29.86 | 0.00 | 17 | S | 26 | S |
| Sea Girt | NJ | 2026-05-04 16:00 | Mesonet | 59 | 52 | 77 | 29.86 | 0.00 | 14 | SSE | 26 | S |
| Sea Girt | NJ | 2026-05-04 15:50 | Mesonet | 59 | 52 | 76 | 29.86 | 0.00 | 17 | SSE | 26 | S |
| Sea Girt | NJ | 2026-05-04 15:10 | Mesonet | 59 | 52 | 75 | 29.88 | 0.00 | 20 | S | 22 | S |
| Sea Girt | NJ | 2026-05-04 15:45 | Mesonet | 59 | 52 | 77 | 29.87 | 0.00 | 16 | S | 23 | SSE |
| Sea Girt | NJ | 2026-05-04 15:40 | Mesonet | 59 | 52 | 78 | 29.87 | 0.00 | 12 | SSE | 20 | S |
| Sea Girt | NJ | 2026-05-04 15:35 | Mesonet | 59 | 52 | 77 | 29.87 | 0.00 | 16 | SSE | 25 | SSW |
| Sea Girt | NJ | 2026-05-04 15:30 | Mesonet | 60 | 52 | 76 | 29.87 | 0.00 | 11 | S | 24 | S |
| Sea Girt | NJ | 2026-05-04 15:25 | Mesonet | 59 | 52 | 77 | 29.87 | 0.00 | 7 | SSE | 25 | S |
| Sea Girt | NJ | 2026-05-04 15:20 | Mesonet | 60 | 52 | 75 | 29.87 | 0.00 | 19 | SSW | 23 | SSE |
| Sea Girt | NJ | 2026-05-04 15:15 | Mesonet | 60 | 52 | 76 | 29.88 | 0.00 | 17 | SSE | 23 | SSE |
| Sea Girt | NJ | 2026-05-04 07:40 | Mesonet | 53 | 44 | 69 | 29.99 | 0.00 | 15 | SW | 20 | SW |
| Sea Girt | NJ | 2026-05-04 07:30 | Mesonet | 53 | 44 | 70 | 30.00 | 0.00 | 15 | SW | 19 | SW |
| Sea Girt | NJ | 2026-05-03 19:35 | Mesonet | 59 | 30 | 34 | 29.90 | 0.00 | 4 | WSW | 9 | WSW |
| Sea Girt | NJ | 2026-05-03 23:15 | Mesonet | 53 | 34 | 48 | 29.95 | 0.00 | 9 | SW | 13 | WSW |
| Sea Girt | NJ | 2026-05-03 23:45 | Mesonet | 52 | 33 | 48 | 29.95 | 0.00 | 10 | WSW | 14 | WSW |
| Sea Girt | NJ | 2026-05-03 23:40 | Mesonet | 52 | 33 | 49 | 29.95 | 0.00 | 7 | SW | 13 | SW |
| Sea Girt | NJ | 2026-05-03 23:35 | Mesonet | 52 | 33 | 48 | 29.95 | 0.00 | 10 | SW | 12 | SW |
| Sea Girt | NJ | 2026-05-03 23:30 | Mesonet | 52 | 34 | 49 | 29.95 | 0.00 | 9 | WSW | 13 | WSW |
| Sea Girt | NJ | 2026-05-03 23:25 | Mesonet | 53 | 34 | 48 | 29.95 | 0.00 | 11 | SW | 12 | WSW |
| Sea Girt | NJ | 2026-05-03 23:20 | Mesonet | 53 | 33 | 47 | 29.95 | 0.00 | 10 | WSW | 13 | SW |
| Sea Girt | NJ | 2026-05-03 23:10 | Mesonet | 53 | 33 | 48 | 29.95 | 0.00 | 10 | WSW | 11 | SW |
| Sea Girt | NJ | 2026-05-03 23:55 | Mesonet | 52 | 33 | 49 | 29.95 | 0.00 | 9 | SW | 13 | SW |
| Sea Girt | NJ | 2026-05-03 23:05 | Mesonet | 53 | 33 | 47 | 29.95 | 0.00 | 6 | WSW | 13 | WSW |
| Sea Girt | NJ | 2026-05-03 23:00 | Mesonet | 53 | 33 | 48 | 29.95 | 0.00 | 8 | WSW | 11 | SW |
| Sea Girt | NJ | 2026-05-03 22:55 | Mesonet | 53 | 33 | 48 | 29.95 | 0.00 | 10 | SSW | 11 | WSW |
| Sea Girt | NJ | 2026-05-03 22:50 | Mesonet | 53 | 33 | 48 | 29.94 | 0.00 | 9 | WSW | 11 | WSW |
| Sea Girt | NJ | 2026-05-03 22:45 | Mesonet | 53 | 33 | 47 | 29.94 | 0.00 | 9 | WSW | 10 | WSW |
| Sea Girt | NJ | 2026-05-03 22:40 | Mesonet | 53 | 33 | 47 | 29.95 | 0.00 | 8 | WSW | 9 | WSW |
| Sea Girt | NJ | 2026-05-03 23:50 | Mesonet | 52 | 34 | 49 | 29.95 | 0.00 | 9 | W | 12 | WSW |
| Sea Girt | NJ | 2026-05-04 00:00 | Mesonet | 52 | 34 | 50 | 29.95 | 0.00 | 8 | WSW | 12 | WSW |
| Sea Girt | NJ | 2026-05-03 22:30 | Mesonet | 53 | 33 | 47 | 29.95 | 0.00 | 7 | WSW | 10 | WSW |
| Sea Girt | NJ | 2026-05-04 00:45 | Mesonet | 51 | 34 | 51 | 29.96 | 0.00 | 8 | SW | 12 | WSW |
| Sea Girt | NJ | 2026-05-04 01:15 | Mesonet | 51 | 33 | 50 | 29.96 | 0.00 | 11 | SW | 15 | SW |
| Sea Girt | NJ | 2026-05-04 01:10 | Mesonet | 51 | 34 | 51 | 29.97 | 0.00 | 9 | WSW | 16 | SW |
| Sea Girt | NJ | 2026-05-04 01:05 | Mesonet | 51 | 33 | 50 | 29.97 | 0.00 | 9 | WSW | 15 | WSW |
| Sea Girt | NJ | 2026-05-04 01:00 | Mesonet | 51 | 34 | 51 | 29.96 | 0.00 | 9 | WSW | 14 | SW |
| Sea Girt | NJ | 2026-05-04 00:55 | Mesonet | 51 | 34 | 51 | 29.96 | 0.00 | 8 | WSW | 14 | WSW |
| Sea Girt | NJ | 2026-05-04 00:50 | Mesonet | 51 | 34 | 51 | 29.96 | 0.00 | 10 | WSW | 13 | WSW |
| Sea Girt | NJ | 2026-05-04 00:40 | Mesonet | 51 | 34 | 50 | 29.96 | 0.00 | 9 | WSW | 14 | SW |
| Sea Girt | NJ | 2026-05-04 00:05 | Mesonet | 52 | 34 | 50 | 29.96 | 0.00 | 10 | SW | 12 | WSW |
| Sea Girt | NJ | 2026-05-04 00:35 | Mesonet | 51 | 33 | 50 | 29.96 | 0.00 | 10 | SW | 14 | WSW |
| Sea Girt | NJ | 2026-05-04 00:30 | Mesonet | 51 | 34 | 51 | 29.96 | 0.00 | 9 | SW | 13 | WSW |
| Sea Girt | NJ | 2026-05-04 00:25 | Mesonet | 51 | 34 | 51 | 29.96 | 0.00 | 10 | WSW | 12 | WSW |
| Sea Girt | NJ | 2026-05-04 00:20 | Mesonet | 52 | 33 | 50 | 29.96 | 0.00 | 10 | SW | 14 | WSW |
| Sea Girt | NJ | 2026-05-04 00:15 | Mesonet | 52 | 34 | 50 | 29.96 | 0.00 | 9 | SW | 12 | WSW |
| Sea Girt | NJ | 2026-05-04 00:10 | Mesonet | 52 | 34 | 50 | 29.96 | 0.00 | 9 | SW | 14 | WSW |
| Sea Girt | NJ | 2026-05-03 22:35 | Mesonet | 53 | 33 | 48 | 29.95 | 0.00 | 6 | SW | 9 | WSW |
| Sea Girt | NJ | 2026-05-03 22:25 | Mesonet | 53 | 33 | 47 | 29.95 | 0.00 | 7 | WSW | 10 | SW |
| Sea Girt | NJ | 2026-05-04 01:25 | Mesonet | 51 | 34 | 51 | 29.97 | 0.00 | 11 | SW | 12 | SW |
| Sea Girt | NJ | 2026-05-03 20:15 | Mesonet | 57 | 32 | 38 | 29.91 | 0.00 | 5 | SW | 6 | WSW |
| Sea Girt | NJ | 2026-05-03 20:45 | Mesonet | 56 | 32 | 40 | 29.92 | 0.00 | 7 | SW | 8 | SW |
| Sea Girt | NJ | 2026-05-03 20:40 | Mesonet | 56 | 32 | 40 | 29.92 | 0.00 | 6 | SW | 8 | SW |
| Sea Girt | NJ | 2026-05-03 20:35 | Mesonet | 56 | 32 | 40 | 29.92 | 0.00 | 5 | SW | 7 | SW |
| Sea Girt | NJ | 2026-05-03 20:30 | Mesonet | 56 | 32 | 39 | 29.92 | 0.00 | 6 | SW | 7 | WSW |
| Sea Girt | NJ | 2026-05-03 20:25 | Mesonet | 56 | 32 | 39 | 29.91 | 0.00 | 7 | SW | 7 | WSW |
| Sea Girt | NJ | 2026-05-03 20:20 | Mesonet | 56 | 32 | 39 | 29.91 | 0.00 | 5 | SW | 6 | SW |
| Sea Girt | NJ | 2026-05-03 20:10 | Mesonet | 57 | 31 | 38 | 29.91 | 0.00 | 5 | WSW | 6 | WSW |
| Sea Girt | NJ | 2026-05-03 20:55 | Mesonet | 55 | 32 | 41 | 29.93 | 0.00 | 5 | SW | 7 | SW |
| Sea Girt | NJ | 2026-05-03 20:05 | Mesonet | 57 | 32 | 37 | 29.91 | 0.00 | 5 | WSW | 5 | SW |
| Sea Girt | NJ | 2026-05-03 20:00 | Mesonet | 57 | 31 | 36 | 29.91 | 0.00 | 6 | WSW | 6 | SW |
| Sea Girt | NJ | 2026-05-03 19:55 | Mesonet | 58 | 30 | 35 | 29.91 | 0.00 | 5 | SW | 9 | WSW |
| Sea Girt | NJ | 2026-05-03 19:50 | Mesonet | 58 | 31 | 36 | 29.90 | 0.00 | 7 | WSW | 9 | W |
| Sea Girt | NJ | 2026-05-03 19:45 | Mesonet | 58 | 30 | 34 | 29.90 | 0.00 | 4 | W | 8 | WSW |
| Sea Girt | NJ | 2026-05-03 19:40 | Mesonet | 59 | 30 | 34 | 29.90 | 0.00 | 7 | WSW | 10 | W |
| Sea Girt | NJ | 2026-05-03 20:50 | Mesonet | 56 | 32 | 41 | 29.92 | 0.00 | 5 | SW | 7 | SW |
| Sea Girt | NJ | 2026-05-03 21:00 | Mesonet | 55 | 33 | 43 | 29.93 | 0.00 | 7 | SW | 7 | SW |
| Sea Girt | NJ | 2026-05-03 22:20 | Mesonet | 53 | 33 | 47 | 29.95 | 0.00 | 7 | SW | 10 | WSW |
| Sea Girt | NJ | 2026-05-03 21:45 | Mesonet | 54 | 35 | 49 | 29.95 | 0.00 | 6 | SW | 7 | SW |
| Sea Girt | NJ | 2026-05-03 22:15 | Mesonet | 53 | 34 | 48 | 29.95 | 0.00 | 6 | SW | 9 | SW |
| Sea Girt | NJ | 2026-05-03 22:10 | Mesonet | 53 | 34 | 49 | 29.95 | 0.00 | 7 | SW | 10 | SW |
| Sea Girt | NJ | 2026-05-03 22:05 | Mesonet | 53 | 35 | 51 | 29.95 | 0.00 | 8 | SW | 9 | SW |
| Sea Girt | NJ | 2026-05-03 22:00 | Mesonet | 53 | 35 | 51 | 29.95 | 0.00 | 6 | SW | 9 | SW |
| Sea Girt | NJ | 2026-05-03 21:55 | Mesonet | 53 | 36 | 51 | 29.95 | 0.00 | 6 | SW | 9 | SW |
| Sea Girt | NJ | 2026-05-03 21:50 | Mesonet | 53 | 36 | 52 | 29.95 | 0.00 | 6 | SW | 8 | SW |
| Sea Girt | NJ | 2026-05-03 21:40 | Mesonet | 54 | 33 | 46 | 29.94 | 0.00 | 6 | SW | 8 | SW |
| Sea Girt | NJ | 2026-05-03 21:05 | Mesonet | 55 | 33 | 44 | 29.93 | 0.00 | 5 | SW | 8 | WSW |
| Sea Girt | NJ | 2026-05-03 21:35 | Mesonet | 54 | 33 | 45 | 29.94 | 0.00 | 5 | SW | 7 | SW |
| Sea Girt | NJ | 2026-05-03 21:30 | Mesonet | 55 | 33 | 44 | 29.94 | 0.00 | 6 | SW | 7 | SW |
| Sea Girt | NJ | 2026-05-03 21:25 | Mesonet | 55 | 33 | 43 | 29.94 | 0.00 | 6 | WSW | 8 | SW |
| Sea Girt | NJ | 2026-05-03 21:20 | Mesonet | 55 | 33 | 43 | 29.94 | 0.00 | 6 | SW | 8 | WSW |
| Sea Girt | NJ | 2026-05-03 21:15 | Mesonet | 55 | 32 | 42 | 29.94 | 0.00 | 6 | SW | 8 | SW |
| Sea Girt | NJ | 2026-05-03 21:10 | Mesonet | 55 | 33 | 42 | 29.93 | 0.00 | 6 | SW | 9 | SW |
| Sea Girt | NJ | 2026-05-04 01:20 | Mesonet | 51 | 34 | 51 | 29.97 | 0.00 | 8 | WSW | 12 | SW |
| Sea Girt | NJ | 2026-05-04 01:30 | Mesonet | 51 | 34 | 52 | 29.96 | 0.00 | 10 | WSW | 13 | SW |
| Sea Girt | NJ | 2026-05-04 07:25 | Mesonet | 53 | 43 | 70 | 30.00 | 0.00 | 14 | WSW | 18 | SW |
| Sea Girt | NJ | 2026-05-04 05:20 | Mesonet | 51 | 38 | 61 | 29.99 | 0.00 | 10 | SW | 15 | WSW |
| Sea Girt | NJ | 2026-05-04 05:50 | Mesonet | 51 | 40 | 65 | 29.99 | 0.00 | 12 | SW | 20 | SW |
| Sea Girt | NJ | 2026-05-04 05:45 | Mesonet | 51 | 39 | 64 | 29.99 | 0.00 | 13 | SW | 17 | SW |
| Sea Girt | NJ | 2026-05-04 05:40 | Mesonet | 51 | 39 | 63 | 29.99 | 0.00 | 10 | SW | 19 | SW |
| Sea Girt | NJ | 2026-05-04 05:35 | Mesonet | 51 | 39 | 63 | 29.99 | 0.00 | 10 | WSW | 15 | SW |
| Sea Girt | NJ | 2026-05-04 05:30 | Mesonet | 51 | 39 | 63 | 29.99 | 0.00 | 9 | WSW | 15 | SW |
| Sea Girt | NJ | 2026-05-04 05:25 | Mesonet | 51 | 38 | 62 | 29.99 | 0.00 | 8 | WSW | 16 | SW |
| Sea Girt | NJ | 2026-05-04 05:15 | Mesonet | 51 | 38 | 60 | 29.99 | 0.00 | 10 | WSW | 16 | SW |
| Sea Girt | NJ | 2026-05-04 06:00 | Mesonet | 51 | 40 | 66 | 29.99 | 0.00 | 15 | WSW | 21 | WSW |
| Sea Girt | NJ | 2026-05-04 05:10 | Mesonet | 51 | 38 | 60 | 29.99 | 0.00 | 12 | SW | 15 | SW |
| Sea Girt | NJ | 2026-05-04 05:05 | Mesonet | 51 | 37 | 60 | 29.99 | 0.00 | 10 | SW | 17 | SW |
| Sea Girt | NJ | 2026-05-04 05:00 | Mesonet | 51 | 37 | 60 | 29.99 | 0.00 | 8 | SW | 15 | SW |
| Sea Girt | NJ | 2026-05-04 04:55 | Mesonet | 51 | 37 | 59 | 29.99 | 0.00 | 12 | WSW | 16 | WSW |
| Sea Girt | NJ | 2026-05-04 04:50 | Mesonet | 51 | 37 | 58 | 29.99 | 0.00 | 12 | WSW | 16 | SW |
| Sea Girt | NJ | 2026-05-04 04:45 | Mesonet | 51 | 36 | 58 | 29.99 | 0.00 | 11 | WSW | 16 | WSW |
| Sea Girt | NJ | 2026-05-04 05:55 | Mesonet | 51 | 40 | 65 | 29.99 | 0.00 | 12 | WSW | 20 | SW |
| Sea Girt | NJ | 2026-05-04 06:05 | Mesonet | 51 | 40 | 67 | 29.99 | 0.00 | 8 | SW | 15 | WSW |
| Sea Girt | NJ | 2026-05-04 04:35 | Mesonet | 51 | 36 | 57 | 29.99 | 0.00 | 11 | SW | 17 | WSW |
| Sea Girt | NJ | 2026-05-04 06:50 | Mesonet | 51 | 41 | 68 | 30.00 | 0.00 | 7 | WSW | 15 | WSW |
| Sea Girt | NJ | 2026-05-04 07:20 | Mesonet | 52 | 43 | 70 | 30.00 | 0.00 | 13 | WSW | 17 | SW |
| Sea Girt | NJ | 2026-05-04 07:15 | Mesonet | 52 | 42 | 69 | 30.00 | 0.00 | 8 | W | 18 | WSW |
| Sea Girt | NJ | 2026-05-04 07:10 | Mesonet | 52 | 42 | 69 | 30.00 | 0.00 | 12 | WSW | 16 | WSW |
| Sea Girt | NJ | 2026-05-04 07:05 | Mesonet | 52 | 42 | 69 | 30.00 | 0.00 | 13 | WSW | 15 | SW |
| Sea Girt | NJ | 2026-05-04 07:00 | Mesonet | 51 | 42 | 69 | 30.00 | 0.00 | 9 | SW | 19 | SW |
| Sea Girt | NJ | 2026-05-04 06:55 | Mesonet | 51 | 41 | 69 | 30.00 | 0.00 | 15 | WSW | 17 | SW |
| Sea Girt | NJ | 2026-05-04 06:45 | Mesonet | 51 | 41 | 68 | 30.00 | 0.00 | 12 | WSW | 15 | WSW |
| Sea Girt | NJ | 2026-05-04 06:10 | Mesonet | 51 | 40 | 67 | 29.99 | 0.00 | 7 | WSW | 15 | WSW |
| Sea Girt | NJ | 2026-05-04 06:40 | Mesonet | 51 | 41 | 68 | 30.00 | 0.00 | 13 | SW | 15 | WSW |
| Sea Girt | NJ | 2026-05-04 06:35 | Mesonet | 51 | 41 | 68 | 30.00 | 0.00 | 10 | WSW | 17 | WSW |
| Sea Girt | NJ | 2026-05-04 06:30 | Mesonet | 51 | 41 | 68 | 30.00 | 0.00 | 9 | WSW | 16 | SW |
| Sea Girt | NJ | 2026-05-04 06:25 | Mesonet | 51 | 40 | 68 | 30.00 | 0.00 | 8 | SW | 16 | SW |
| Sea Girt | NJ | 2026-05-04 06:20 | Mesonet | 51 | 40 | 67 | 29.99 | 0.00 | 9 | SW | 16 | WSW |
| Sea Girt | NJ | 2026-05-04 06:15 | Mesonet | 51 | 40 | 67 | 30.00 | 0.00 | 10 | SW | 17 | SW |
| Sea Girt | NJ | 2026-05-04 04:40 | Mesonet | 51 | 37 | 58 | 29.99 | 0.00 | 16 | WSW | 16 | WSW |
| Sea Girt | NJ | 2026-05-04 04:30 | Mesonet | 50 | 36 | 57 | 29.99 | 0.00 | 16 | WSW | 16 | WSW |
| Sea Girt | NJ | 2026-05-04 01:35 | Mesonet | 51 | 34 | 53 | 29.97 | 0.00 | 8 | SW | 15 | WSW |
| Sea Girt | NJ | 2026-05-04 02:15 | Mesonet | 50 | 35 | 56 | 29.97 | 0.00 | 7 | WSW | 11 | WSW |
| Sea Girt | NJ | 2026-05-04 02:45 | Mesonet | 49 | 35 | 57 | 29.97 | 0.00 | 10 | WSW | 11 | W |
| Sea Girt | NJ | 2026-05-04 02:40 | Mesonet | 50 | 35 | 56 | 29.97 | 0.00 | 8 | WSW | 12 | WSW |
| Sea Girt | NJ | 2026-05-04 02:35 | Mesonet | 50 | 34 | 56 | 29.96 | 0.00 | 9 | WSW | 11 | WSW |
| Sea Girt | NJ | 2026-05-04 02:30 | Mesonet | 50 | 35 | 56 | 29.97 | 0.00 | 10 | WSW | 11 | WSW |
| Sea Girt | NJ | 2026-05-04 02:25 | Mesonet | 50 | 34 | 55 | 29.97 | 0.00 | 8 | SW | 13 | WSW |
| Sea Girt | NJ | 2026-05-04 02:20 | Mesonet | 50 | 35 | 56 | 29.97 | 0.00 | 12 | WSW | 12 | WSW |
| Sea Girt | NJ | 2026-05-04 02:10 | Mesonet | 50 | 34 | 55 | 29.97 | 0.00 | 7 | WSW | 12 | WSW |
| Sea Girt | NJ | 2026-05-04 02:55 | Mesonet | 50 | 35 | 56 | 29.97 | 0.00 | 10 | WSW | 13 | WSW |
| Sea Girt | NJ | 2026-05-04 02:05 | Mesonet | 50 | 34 | 55 | 29.97 | 0.00 | 10 | WSW | 14 | WSW |
| Sea Girt | NJ | 2026-05-04 02:00 | Mesonet | 50 | 34 | 54 | 29.97 | 0.00 | 10 | SW | 13 | WSW |
| Sea Girt | NJ | 2026-05-04 01:55 | Mesonet | 50 | 34 | 53 | 29.97 | 0.00 | 8 | SW | 13 | WSW |
| Sea Girt | NJ | 2026-05-04 01:50 | Mesonet | 50 | 34 | 54 | 29.97 | 0.00 | 11 | WSW | 14 | W |
| Sea Girt | NJ | 2026-05-04 01:45 | Mesonet | 50 | 34 | 54 | 29.97 | 0.00 | 8 | WSW | 13 | WSW |
| Sea Girt | NJ | 2026-05-04 01:40 | Mesonet | 50 | 34 | 54 | 29.97 | 0.00 | 9 | WSW | 13 | WSW |
| Sea Girt | NJ | 2026-05-04 02:50 | Mesonet | 50 | 35 | 57 | 29.97 | 0.00 | 8 | WSW | 13 | WSW |
| Sea Girt | NJ | 2026-05-04 03:00 | Mesonet | 50 | 35 | 55 | 29.97 | 0.00 | 8 | SW | 14 | SW |
| Sea Girt | NJ | 2026-05-04 04:25 | Mesonet | 50 | 36 | 57 | 29.99 | 0.00 | 11 | WSW | 16 | SW |
| Sea Girt | NJ | 2026-05-04 03:50 | Mesonet | 50 | 35 | 57 | 29.98 | 0.00 | 9 | SW | 14 | WSW |
| Sea Girt | NJ | 2026-05-04 04:20 | Mesonet | 50 | 36 | 58 | 29.99 | 0.00 | 5 | WSW | 13 | SW |
| Sea Girt | NJ | 2026-05-04 04:15 | Mesonet | 50 | 36 | 58 | 29.99 | 0.00 | 6 | W | 13 | WSW |
| Sea Girt | NJ | 2026-05-04 04:10 | Mesonet | 50 | 35 | 57 | 29.99 | 0.00 | 8 | SW | 14 | SW |
| Sea Girt | NJ | 2026-05-04 04:05 | Mesonet | 51 | 35 | 56 | 29.99 | 0.00 | 9 | WSW | 16 | WSW |
| Sea Girt | NJ | 2026-05-04 04:00 | Mesonet | 50 | 35 | 56 | 29.99 | 0.00 | 10 | WSW | 15 | WSW |
| Sea Girt | NJ | 2026-05-04 03:55 | Mesonet | 50 | 36 | 57 | 29.98 | 0.00 | 8 | WSW | 13 | WSW |
| Sea Girt | NJ | 2026-05-04 03:45 | Mesonet | 50 | 35 | 57 | 29.98 | 0.00 | 8 | WSW | 14 | WSW |
| Sea Girt | NJ | 2026-05-04 03:05 | Mesonet | 50 | 35 | 56 | 29.97 | 0.00 | 10 | SW | 15 | SW |
| Sea Girt | NJ | 2026-05-04 03:40 | Mesonet | 50 | 35 | 56 | 29.98 | 0.00 | 8 | WSW | 13 | WSW |
| Sea Girt | NJ | 2026-05-04 03:35 | Mesonet | 50 | 35 | 56 | 29.98 | 0.00 | 9 | WSW | 13 | WSW |
| Sea Girt | NJ | 2026-05-04 03:30 | Mesonet | 50 | 35 | 56 | 29.98 | 0.00 | 12 | WSW | 15 | WSW |
| Sea Girt | NJ | 2026-05-04 03:25 | Mesonet | 50 | 35 | 57 | 29.98 | 0.00 | 9 | SW | 14 | WSW |
| Sea Girt | NJ | 2026-05-04 03:20 | Mesonet | 50 | 35 | 57 | 29.97 | 0.00 | 9 | WSW | 14 | SW |
| Sea Girt | NJ | 2026-05-04 03:15 | Mesonet | 50 | 35 | 56 | 29.97 | 0.00 | 9 | WSW | 14 | SW |
| Sea Girt | NJ | 2026-05-04 03:10 | Mesonet | 50 | 35 | 56 | 29.97 | 0.00 | 9 | WSW | 13 | SW |
| Sea Girt | NJ | 2026-05-04 19:30 | Mesonet | 62 | 52 | 69 | 29.86 | 0.00 | 11 | SSW | 17 | SSW |
data collection created in 0.06193995475769 (queried in 0.011671) rendered in: 0.00090694427490234

